createdAt,value
2023-03-29T00:02:30.558Z,11.77
2023-03-29T00:04:57.951Z,6.75
2023-03-29T00:07:26.095Z,7.85
2023-03-29T00:09:53.010Z,8.85
2023-03-29T00:12:19.514Z,7.82
2023-03-29T00:14:46.611Z,9.10
2023-03-29T00:17:13.282Z,7.25
2023-03-29T00:19:39.848Z,8.65
2023-03-29T00:22:06.290Z,9.43
2023-03-29T00:24:32.983Z,8.75
2023-03-29T00:26:59.424Z,9.60
2023-03-29T00:29:25.885Z,11.05
2023-03-29T00:31:54.559Z,8.48
2023-03-29T00:34:21.921Z,11.07
2023-03-29T00:36:52.978Z,8.93
2023-03-29T00:39:20.632Z,9.73
2023-03-29T00:41:48.583Z,7.93
2023-03-29T00:45:12.439Z,10.07
2023-03-29T00:47:51.692Z,7.53
2023-03-29T00:50:30.883Z,9.65
2023-03-29T00:53:07.223Z,7.40
2023-03-29T00:55:42.862Z,10.23
2023-03-29T00:58:15.545Z,7.68
2023-03-29T01:00:52.182Z,6.75
2023-03-29T01:03:25.028Z,6.95
2023-03-29T01:05:58.337Z,8.27
2023-03-29T01:08:29.283Z,10.75
2023-03-29T01:11:08.284Z,8.10
2023-03-29T01:13:43.970Z,9.10
2023-03-29T01:16:12.315Z,7.13
2023-03-29T01:18:39.747Z,6.63
2023-03-29T01:21:27.868Z,6.43
2023-03-29T01:24:18.131Z,7.53
2023-03-29T01:27:03.718Z,7.13
2023-03-29T01:29:37.115Z,7.95
2023-03-29T01:32:11.538Z,6.88
2023-03-29T01:35:10.320Z,10.43
2023-03-29T01:37:38.470Z,7.53
2023-03-29T01:40:06.289Z,7.47
2023-03-29T01:42:44.768Z,8.18
2023-03-29T01:45:23.569Z,9.18
2023-03-29T01:47:50.332Z,8.13
2023-03-29T01:50:34.998Z,9.10
2023-03-29T01:53:10.259Z,8.75
2023-03-29T01:55:41.408Z,8.27
2023-03-29T01:58:12.297Z,9.73
2023-03-29T02:00:41.351Z,6.50
2023-03-29T02:03:09.796Z,9.40
2023-03-29T02:05:39.437Z,8.98
2023-03-29T02:08:09.196Z,6.50
2023-03-29T02:10:36.904Z,7.45
2023-03-29T02:13:04.717Z,8.70
2023-03-29T02:15:31.209Z,8.13
2023-03-29T02:17:58.345Z,8.52
2023-03-29T02:20:30.046Z,9.30
2023-03-29T02:23:08.379Z,6.68
2023-03-29T02:25:37.886Z,7.53
2023-03-29T02:28:07.118Z,8.02
2023-03-29T02:30:49.279Z,9.32
2023-03-29T02:33:25.684Z,6.03
2023-03-29T02:35:54.555Z,6.18
2023-03-29T02:38:22.053Z,6.50
2023-03-29T02:40:48.581Z,7.80
2023-03-29T02:43:16.826Z,5.40
2023-03-29T02:45:44.992Z,5.75
2023-03-29T02:48:16.720Z,6.63
2023-03-29T02:50:47.307Z,6.63
2023-03-29T02:53:18.893Z,9.73
2023-03-29T02:55:46.877Z,7.70
2023-03-29T02:58:15.515Z,9.10
2023-03-29T03:00:48.077Z,9.82
2023-03-29T03:03:17.983Z,7.50
2023-03-29T03:05:44.514Z,6.40
2023-03-29T03:08:11.654Z,7.72
2023-03-29T03:10:38.909Z,8.02
2023-03-29T03:13:05.783Z,7.00
2023-03-29T03:15:35.676Z,7.88
2023-03-29T03:18:06.030Z,9.68
2023-03-29T03:20:33.606Z,11.68
2023-03-29T03:23:01.139Z,9.00
2023-03-29T03:25:28.704Z,7.78
2023-03-29T03:27:55.896Z,8.60
2023-03-29T03:30:22.389Z,8.98
2023-03-29T03:32:49.903Z,8.70
2023-03-29T03:35:16.835Z,7.45
2023-03-29T03:37:43.260Z,8.63
2023-03-29T03:40:11.738Z,9.05
2023-03-29T03:42:39.548Z,9.52
2023-03-29T03:45:08.218Z,9.95
2023-03-29T03:47:37.274Z,9.98
2023-03-29T03:50:05.721Z,9.63
2023-03-29T03:52:32.204Z,8.05
2023-03-29T03:54:58.723Z,9.80
2023-03-29T03:57:25.371Z,8.75
2023-03-29T03:59:52.825Z,9.32
2023-03-29T04:02:20.647Z,7.35
2023-03-29T04:04:47.811Z,10.65
2023-03-29T04:07:14.653Z,10.07
2023-03-29T04:09:41.089Z,10.52
2023-03-29T04:12:07.667Z,10.13
2023-03-29T04:14:34.240Z,8.52
2023-03-29T04:17:01.479Z,9.70
2023-03-29T04:19:28.651Z,10.45
2023-03-29T04:21:55.095Z,9.75
2023-03-29T04:24:23.263Z,11.20
2023-03-29T04:26:49.778Z,9.43
2023-03-29T04:29:16.229Z,8.80
2023-03-29T04:31:42.739Z,8.07
2023-03-29T04:34:09.218Z,10.38
2023-03-29T04:36:35.772Z,11.00
2023-03-29T04:39:02.174Z,9.18
2023-03-29T04:41:28.995Z,9.80
2023-03-29T04:43:56.114Z,8.85
2023-03-29T04:46:26.786Z,9.00
2023-03-29T04:48:54.033Z,9.85
2023-03-29T04:51:22.559Z,9.57
2023-03-29T04:53:50.360Z,11.68
2023-03-29T04:56:17.446Z,10.80
2023-03-29T04:58:44.603Z,12.02
2023-03-29T05:01:11.355Z,9.50
2023-03-29T05:03:37.969Z,10.70
2023-03-29T05:06:07.203Z,9.02
2023-03-29T05:08:35.026Z,9.10
2023-03-29T05:11:01.965Z,8.90
2023-03-29T05:13:28.900Z,9.32
2023-03-29T05:15:57.053Z,10.20
2023-03-29T05:18:24.263Z,10.70
2023-03-29T05:20:53.090Z,9.63
2023-03-29T05:23:20.278Z,12.50
2023-03-29T05:25:50.908Z,11.60
2023-03-29T05:28:18.301Z,10.25
2023-03-29T05:30:45.407Z,10.27
2023-03-29T05:33:12.029Z,9.05
2023-03-29T05:35:38.786Z,13.23
2023-03-29T05:38:05.981Z,9.52
2023-03-29T05:40:32.659Z,11.38
2023-03-29T05:42:59.683Z,11.32
2023-03-29T05:45:28.569Z,8.52
2023-03-29T05:47:55.724Z,11.38
2023-03-29T05:50:22.219Z,12.75
2023-03-29T05:52:48.636Z,12.00
2023-03-29T05:55:15.176Z,13.60
2023-03-29T05:57:41.924Z,11.80
2023-03-29T06:00:25.517Z,11.82
2023-03-29T06:02:52.662Z,11.98
2023-03-29T06:05:20.124Z,11.85
2023-03-29T06:07:48.811Z,11.35
2023-03-29T06:10:16.045Z,15.70
2023-03-29T06:12:42.531Z,11.63
2023-03-29T06:15:10.210Z,10.73
2023-03-29T06:17:36.975Z,13.02
2023-03-29T06:20:08.771Z,10.80
2023-03-29T06:22:35.205Z,13.07
2023-03-29T06:25:02.504Z,11.32
2023-03-29T06:27:28.923Z,12.35
2023-03-29T06:29:55.377Z,11.85
2023-03-29T06:32:22.126Z,13.05
2023-03-29T06:34:48.607Z,13.57
2023-03-29T06:37:15.099Z,13.52
2023-03-29T06:39:41.685Z,15.07
2023-03-29T06:42:20.039Z,13.35
2023-03-29T06:44:47.896Z,14.68
2023-03-29T06:47:14.568Z,13.95
2023-03-29T06:49:41.235Z,14.55
2023-03-29T06:52:07.795Z,15.82
2023-03-29T06:54:34.844Z,13.15
2023-03-29T06:57:02.278Z,15.00
2023-03-29T06:59:28.925Z,12.75
2023-03-29T07:01:56.902Z,15.27
2023-03-29T07:04:26.144Z,13.98
2023-03-29T07:07:01.529Z,15.38
2023-03-29T07:09:30.052Z,12.50
2023-03-29T07:11:57.553Z,12.55
2023-03-29T07:14:31.632Z,12.82
2023-03-29T07:16:58.489Z,12.40
2023-03-29T07:19:27.276Z,12.13
2023-03-29T07:21:54.335Z,15.50
2023-03-29T07:24:21.436Z,13.70
2023-03-29T07:27:03.390Z,18.50
2023-03-29T07:29:30.968Z,12.98
2023-03-29T07:31:57.486Z,11.35
2023-03-29T07:34:24.419Z,11.75
2023-03-29T07:36:51.568Z,12.10
2023-03-29T07:39:18.318Z,12.48
2023-03-29T07:41:44.805Z,12.77
2023-03-29T07:44:11.267Z,12.93
2023-03-29T07:46:38.004Z,10.73
2023-03-29T07:49:04.630Z,11.50
2023-03-29T07:51:31.630Z,11.13
2023-03-29T07:53:58.040Z,10.27
2023-03-29T07:56:24.819Z,12.50
2023-03-29T07:58:52.278Z,13.80
2023-03-29T08:01:19.778Z,12.63
2023-03-29T08:03:46.650Z,12.90
2023-03-29T08:06:13.255Z,10.90
2023-03-29T08:08:39.650Z,13.52
2023-03-29T08:11:08.984Z,11.20
2023-03-29T08:13:35.756Z,10.50
2023-03-29T08:16:02.195Z,9.20
2023-03-29T08:18:28.789Z,12.65
2023-03-29T08:20:55.225Z,11.77
2023-03-29T08:23:21.672Z,12.45
2023-03-29T08:25:48.131Z,10.75
2023-03-29T08:28:14.526Z,13.63
2023-03-29T08:30:41.281Z,13.00
2023-03-29T08:33:07.903Z,9.45
2023-03-29T08:35:34.519Z,10.60
2023-03-29T08:38:01.099Z,9.18
2023-03-29T08:40:32.376Z,11.90
2023-03-29T08:43:13.798Z,9.90
2023-03-29T08:46:00.031Z,8.45
2023-03-29T08:48:28.747Z,12.15
2023-03-29T08:51:02.420Z,12.80
2023-03-29T08:53:37.040Z,9.65
2023-03-29T08:56:11.144Z,10.50
2023-03-29T08:58:38.525Z,10.77
2023-03-29T09:01:09.118Z,9.43
2023-03-29T09:03:43.170Z,10.27
2023-03-29T09:08:46.280Z,8.70
2023-03-29T09:11:38.295Z,10.38
2023-03-29T09:14:35.634Z,9.77
2023-03-29T09:17:41.107Z,8.60
2023-03-29T09:20:21.279Z,9.32
2023-03-29T09:23:06.950Z,9.02
2023-03-29T09:26:12.336Z,8.25
2023-03-29T09:29:09.010Z,7.55
2023-03-29T09:31:42.691Z,7.80
2023-03-29T09:34:22.948Z,9.20
2023-03-29T09:36:49.312Z,9.15
2023-03-29T09:39:16.715Z,8.10
2023-03-29T09:41:50.597Z,7.95
2023-03-29T09:44:30.696Z,7.90
2023-03-29T09:47:11.625Z,7.97
2023-03-29T09:49:44.171Z,8.57
2023-03-29T09:52:17.029Z,7.60
2023-03-29T09:54:44.193Z,8.25
2023-03-29T09:57:14.054Z,7.50
2023-03-29T09:59:41.156Z,7.97
2023-03-29T10:02:10.221Z,7.75
2023-03-29T10:04:37.146Z,8.43
2023-03-29T10:07:05.750Z,9.45
2023-03-29T10:09:33.049Z,8.05
2023-03-29T10:12:02.378Z,10.77
2023-03-29T10:14:37.084Z,7.88
2023-03-29T10:17:15.827Z,7.20
2023-03-29T10:19:50.364Z,9.50
2023-03-29T10:22:22.947Z,6.97
2023-03-29T10:24:52.087Z,7.93
2023-03-29T10:27:28.021Z,7.47
2023-03-29T10:29:56.624Z,7.20
2023-03-29T10:32:30.566Z,8.50
2023-03-29T10:35:06.921Z,7.95
2023-03-29T10:37:33.469Z,7.57
2023-03-29T10:39:59.915Z,8.35
2023-03-29T10:42:27.319Z,7.70
2023-03-29T10:44:59.419Z,7.53
2023-03-29T10:47:31.122Z,8.18
2023-03-29T10:52:29.702Z,9.02
2023-03-29T10:54:56.844Z,7.40
2023-03-29T10:57:55.463Z,9.05
2023-03-29T11:00:40.677Z,7.88
2023-03-29T11:03:28.428Z,6.57
2023-03-29T11:06:04.336Z,7.47
2023-03-29T11:08:46.546Z,7.10
2023-03-29T11:11:58.502Z,7.13
2023-03-29T11:15:01.668Z,7.57
2023-03-29T11:17:59.066Z,7.47
2023-03-29T11:20:29.296Z,6.97
2023-03-29T11:23:16.372Z,7.22
2023-03-29T11:25:49.125Z,6.28
2023-03-29T11:28:32.309Z,7.72
2023-03-29T11:31:48.162Z,6.97
2023-03-29T11:34:30.529Z,7.32
2023-03-29T11:37:07.704Z,6.75
2023-03-29T11:39:54.324Z,7.18
2023-03-29T11:42:26.720Z,6.82
2023-03-29T11:44:57.545Z,7.00
2023-03-29T11:47:30.592Z,5.43
2023-03-29T11:50:07.778Z,5.57
2023-03-29T11:52:40.268Z,7.68
2023-03-29T11:55:26.488Z,5.50
2023-03-29T11:58:01.333Z,6.05
2023-03-29T12:00:32.796Z,7.93
2023-03-29T12:03:32.826Z,5.20
2023-03-29T12:06:08.549Z,6.07
2023-03-29T12:08:45.790Z,5.93
2023-03-29T12:11:24.345Z,8.13
2023-03-29T12:13:58.732Z,7.88
2023-03-29T12:16:34.244Z,6.82
2023-03-29T12:19:18.063Z,8.75
2023-03-29T12:21:47.224Z,6.18
2023-03-29T12:24:19.037Z,5.63
2023-03-29T12:26:51.810Z,7.18
2023-03-29T12:30:01.230Z,7.53
2023-03-29T12:32:48.767Z,9.02
2023-03-29T12:35:37.744Z,5.68
2023-03-29T12:38:14.110Z,6.28
2023-03-29T12:40:44.044Z,6.50
2023-03-29T12:43:48.108Z,5.03
2023-03-29T12:46:18.537Z,6.07
2023-03-29T12:48:49.102Z,8.32
2023-03-29T12:51:19.699Z,5.68
2023-03-29T12:53:49.097Z,7.93
2023-03-29T12:56:56.138Z,5.20
2023-03-29T12:59:46.145Z,4.88
2023-03-29T13:02:12.532Z,4.78
2023-03-29T13:05:04.708Z,5.50
2023-03-29T13:07:46.348Z,5.75
2023-03-29T13:10:34.356Z,4.78
2023-03-29T13:13:11.788Z,5.32
2023-03-29T13:15:39.292Z,6.53
2023-03-29T13:18:35.407Z,6.10
2023-03-29T13:21:17.657Z,5.10
2023-03-29T13:24:06.656Z,5.15
2023-03-29T13:26:51.689Z,8.65
2023-03-29T13:29:51.459Z,5.68
2023-03-29T13:32:30.039Z,4.97
2023-03-29T13:35:06.901Z,5.45
2023-03-29T13:37:40.883Z,5.95
2023-03-29T13:40:29.483Z,4.57
2023-03-29T13:43:11.746Z,5.45
2023-03-29T13:45:38.957Z,4.53
2023-03-29T13:48:28.857Z,5.53
2023-03-29T13:50:57.924Z,5.32
2023-03-29T13:53:30.845Z,5.65
2023-03-29T13:55:59.115Z,4.22
2023-03-29T13:58:39.667Z,3.33
2023-03-29T14:01:31.232Z,2.95
2023-03-29T14:03:59.321Z,5.20
2023-03-29T14:06:29.910Z,3.83
2023-03-29T14:08:56.595Z,3.88
2023-03-29T14:11:29.012Z,5.03
2023-03-29T14:14:01.261Z,5.40
2023-03-29T14:16:37.227Z,5.28
2023-03-29T14:19:37.531Z,6.20
2023-03-29T14:22:13.088Z,7.38
2023-03-29T14:24:48.110Z,5.28
2023-03-29T14:27:16.222Z,11.45
2023-03-29T14:29:45.456Z,8.73
2023-03-29T14:32:17.758Z,6.22
2023-03-29T14:34:50.879Z,12.80
2023-03-29T14:37:22.548Z,10.88
2023-03-29T14:42:22.714Z,7.10
2023-03-29T14:44:51.066Z,7.00
2023-03-29T14:47:27.222Z,7.65
2023-03-29T14:49:57.071Z,5.63
2023-03-29T14:52:24.008Z,5.60
2023-03-29T14:54:54.105Z,6.13
2023-03-29T14:57:25.104Z,5.70
2023-03-29T14:59:59.947Z,8.75
2023-03-29T15:02:26.567Z,5.85
2023-03-29T15:05:03.399Z,6.05
2023-03-29T15:07:32.306Z,5.47
2023-03-29T15:10:00.016Z,6.55
2023-03-29T15:12:30.755Z,5.97
2023-03-29T15:14:58.085Z,5.73
2023-03-29T15:17:49.602Z,5.70
2023-03-29T15:20:38.841Z,7.28
2023-03-29T15:23:14.270Z,6.45
2023-03-29T15:26:10.524Z,7.15
2023-03-29T15:28:57.491Z,2.65
2023-03-29T15:31:34.599Z,4.95
2023-03-29T15:34:06.351Z,6.80
2023-03-29T15:36:38.674Z,5.32
2023-03-29T15:39:05.282Z,6.93
2023-03-29T15:41:31.865Z,6.22
2023-03-29T15:43:58.546Z,6.07
2023-03-29T15:46:25.092Z,5.65
2023-03-29T15:48:51.579Z,7.35
2023-03-29T15:51:18.181Z,7.50
2023-03-29T15:53:44.634Z,5.90
2023-03-29T15:56:16.227Z,4.75
2023-03-29T16:01:39.465Z,3.97
2023-03-29T16:04:17.716Z,5.95
2023-03-29T16:06:48.671Z,5.10
2023-03-29T16:09:19.709Z,4.30
2023-03-29T16:11:46.502Z,4.38
2023-03-29T16:14:23.125Z,4.97
2023-03-29T16:16:51.366Z,5.38
2023-03-29T16:19:18.414Z,3.83
2023-03-29T16:21:45.294Z,6.18
2023-03-29T16:24:17.649Z,5.50
2023-03-29T16:26:44.174Z,6.45
2023-03-29T16:29:10.675Z,5.05
2023-03-29T16:31:37.290Z,8.48
2023-03-29T16:34:05.587Z,6.18
2023-03-29T16:36:33.794Z,7.95
2023-03-29T16:39:00.611Z,6.70
2023-03-29T16:41:27.790Z,6.68
2023-03-29T16:43:54.267Z,5.75
2023-03-29T16:46:21.107Z,5.50
2023-03-29T16:48:48.899Z,6.35
2023-03-29T16:51:15.589Z,6.80
2023-03-29T16:53:42.012Z,7.13
2023-03-29T16:56:08.933Z,6.38
2023-03-29T16:58:35.408Z,7.70
2023-03-29T17:01:13.222Z,6.72
2023-03-29T17:03:41.028Z,6.10
2023-03-29T17:06:08.832Z,11.80
2023-03-29T17:08:36.825Z,9.38
2023-03-29T17:11:04.521Z,10.73
2023-03-29T17:13:31.098Z,9.93
2023-03-29T17:15:57.853Z,16.25
2023-03-29T17:18:26.314Z,10.73
2023-03-29T17:20:56.686Z,10.18
2023-03-29T17:23:23.518Z,10.93
2023-03-29T17:25:50.588Z,11.73
2023-03-29T17:28:17.042Z,11.15
2023-03-29T17:30:46.548Z,10.15
2023-03-29T17:33:13.525Z,10.00
2023-03-29T17:35:43.912Z,7.75
2023-03-29T17:38:11.425Z,7.03
2023-03-29T17:40:38.236Z,5.90
2023-03-29T17:43:05.085Z,5.20
2023-03-29T17:45:32.165Z,6.93
2023-03-29T17:47:58.837Z,5.97
2023-03-29T17:50:25.436Z,6.03
2023-03-29T17:52:52.132Z,5.72
2023-03-29T17:55:18.795Z,6.65
2023-03-29T17:57:45.203Z,5.78
2023-03-29T18:00:13.698Z,6.38
2023-03-29T18:02:41.509Z,7.43
2023-03-29T18:05:09.418Z,6.85
2023-03-29T18:07:36.233Z,10.95
2023-03-29T18:10:03.089Z,8.25
2023-03-29T18:12:29.607Z,9.07
2023-03-29T18:14:59.423Z,7.10
2023-03-29T18:17:27.349Z,7.95
2023-03-29T18:19:54.121Z,8.88
2023-03-29T18:22:20.743Z,7.95
2023-03-29T18:24:48.162Z,8.25
2023-03-29T18:27:15.841Z,8.50
2023-03-29T18:29:44.589Z,9.75
2023-03-29T18:32:11.906Z,8.32
2023-03-29T18:34:39.290Z,8.25
2023-03-29T18:37:06.226Z,8.63
2023-03-29T18:39:34.757Z,9.65
2023-03-29T18:42:02.047Z,8.07
2023-03-29T18:44:29.210Z,10.77
2023-03-29T18:46:56.285Z,9.77
2023-03-29T18:49:22.879Z,9.93
2023-03-29T18:51:49.937Z,9.63
2023-03-29T18:54:17.330Z,8.38
2023-03-29T18:56:44.859Z,8.93
2023-03-29T18:59:11.639Z,9.52
2023-03-29T19:01:38.724Z,9.52
2023-03-29T19:04:05.647Z,10.48
2023-03-29T19:06:32.582Z,10.32
2023-03-29T19:09:02.156Z,11.20
2023-03-29T19:11:31.765Z,9.05
2023-03-29T19:13:58.407Z,10.55
2023-03-29T19:16:25.753Z,9.15
2023-03-29T19:18:52.343Z,11.65
2023-03-29T19:21:18.785Z,11.65
2023-03-29T19:23:46.131Z,12.77
2023-03-29T19:26:13.298Z,9.90
2023-03-29T19:28:39.889Z,9.55
2023-03-29T19:31:07.109Z,9.52
2023-03-29T19:33:33.748Z,10.00
2023-03-29T19:36:00.244Z,9.80
2023-03-29T19:38:27.128Z,10.57
2023-03-29T19:40:53.571Z,10.45
2023-03-29T19:43:20.871Z,10.27
2023-03-29T19:45:49.504Z,9.57
2023-03-29T19:48:22.550Z,11.07
2023-03-29T19:50:50.162Z,11.18
2023-03-29T19:53:16.776Z,10.60
2023-03-29T19:55:45.066Z,9.90
2023-03-29T19:58:11.943Z,10.93
2023-03-29T20:00:38.900Z,10.48
2023-03-29T20:03:09.594Z,10.35
2023-03-29T20:05:38.117Z,8.85
2023-03-29T20:08:04.629Z,10.98
2023-03-29T20:10:31.473Z,10.73
2023-03-29T20:12:58.134Z,11.43
2023-03-29T20:15:25.930Z,10.25
2023-03-29T20:17:54.203Z,9.77
2023-03-29T20:20:24.133Z,10.75
2023-03-29T20:22:53.967Z,11.75
2023-03-29T20:25:21.266Z,9.02
2023-03-29T20:27:49.392Z,9.98
2023-03-29T20:30:16.418Z,8.93
2023-03-29T20:32:43.199Z,9.23
2023-03-29T20:35:11.124Z,8.80
2023-03-29T20:37:37.579Z,9.68
2023-03-29T20:40:05.405Z,9.70
2023-03-29T20:42:34.321Z,9.43
2023-03-29T20:45:01.833Z,11.45
2023-03-29T20:47:30.129Z,12.88
2023-03-29T20:49:56.897Z,15.38
2023-03-29T20:52:24.144Z,12.55
2023-03-29T20:54:50.746Z,11.52
2023-03-29T20:57:20.981Z,14.98
2023-03-29T20:59:51.310Z,20.00
2023-03-29T21:02:22.816Z,19.83
2023-03-29T21:07:17.252Z,12.57
2023-03-29T21:09:43.897Z,10.20
2023-03-29T21:12:10.897Z,8.07
2023-03-29T21:14:38.238Z,7.25
2023-03-29T21:17:04.774Z,7.85
2023-03-29T21:19:31.225Z,9.65
2023-03-29T21:21:58.060Z,10.02
2023-03-29T21:24:24.592Z,11.93
2023-03-29T21:26:51.080Z,9.05
2023-03-29T21:29:17.536Z,10.13
2023-03-29T21:31:44.121Z,9.98
2023-03-29T21:34:10.709Z,10.07
2023-03-29T21:36:37.190Z,8.50
2023-03-29T21:39:04.010Z,10.75
2023-03-29T21:41:30.494Z,10.27
2023-03-29T21:43:56.890Z,12.00
2023-03-29T21:46:25.811Z,12.43
2023-03-29T21:48:52.389Z,9.43
2023-03-29T21:51:18.881Z,11.52
2023-03-29T21:53:45.436Z,11.90
2023-03-29T21:56:12.676Z,10.57
2023-03-29T21:58:41.780Z,10.82
2023-03-29T22:01:10.187Z,11.45
2023-03-29T22:03:37.920Z,9.93
2023-03-29T22:06:09.246Z,11.20
2023-03-29T22:08:38.819Z,11.93
2023-03-29T22:11:09.354Z,10.65
2023-03-29T22:13:36.717Z,9.93
2023-03-29T22:16:04.707Z,10.70
2023-03-29T22:18:42.494Z,9.63
2023-03-29T22:21:15.116Z,10.40
2023-03-29T22:23:43.712Z,10.05
2023-03-29T22:26:12.232Z,10.70
2023-03-29T22:28:39.767Z,11.57
2023-03-29T22:31:12.515Z,11.52
2023-03-29T22:33:40.562Z,10.50
2023-03-29T22:36:25.435Z,10.75
2023-03-29T22:38:53.009Z,11.48
2023-03-29T22:41:23.636Z,10.32
2023-03-29T22:43:52.463Z,10.85
2023-03-29T22:46:20.012Z,9.00
2023-03-29T22:48:46.734Z,10.38
2023-03-29T22:51:13.261Z,9.82
2023-03-29T22:53:39.758Z,10.05
2023-03-29T22:56:07.519Z,10.85
2023-03-29T22:58:34.488Z,9.05
2023-03-29T23:01:01.609Z,9.68
2023-03-29T23:03:28.226Z,10.65
2023-03-29T23:05:59.191Z,10.05
2023-03-29T23:08:26.219Z,9.18
2023-03-29T23:10:52.756Z,9.07
2023-03-29T23:13:28.704Z,9.52
2023-03-29T23:15:58.938Z,10.98
2023-03-29T23:18:28.420Z,10.93
2023-03-29T23:20:57.175Z,9.80
2023-03-29T23:23:25.336Z,9.27
2023-03-29T23:25:53.239Z,8.52
2023-03-29T23:28:23.680Z,8.90
2023-03-29T23:31:02.350Z,8.82
2023-03-29T23:33:33.204Z,9.13
2023-03-29T23:36:03.397Z,7.75
2023-03-29T23:38:30.799Z,10.00
2023-03-29T23:41:00.226Z,9.00
2023-03-29T23:43:33.426Z,10.63
2023-03-29T23:46:05.163Z,10.73
2023-03-29T23:50:58.884Z,11.27
2023-03-29T23:53:28.542Z,13.23
2023-03-29T23:56:01.235Z,11.38
2023-03-29T23:58:29.468Z,10.45
